Hauptseite
METAR-TAF:

METAR-TAF

Flughäfen :

Amman, Jordanien

Flughafen Marka International

Breite: 31-59N, Länge: 035-59E, Höhe: 767 m

Beobachtung

Neuester Wetterbericht von vor 21 Minuten, um 03:00 UTC
Wind 3 kt aus Nordwest
Temperatur 15°C
Luftfeuchtigkeit 48%
Luftdruck 1013 hPa
Sichtweite: 5000 m
trockener Dunst

METAR: OJAM 300300Z 31003KT 5000 HZ NSC 15/04 Q1013 NOSIG

Zeit: 06:21 (03:21 UTC)

Prognose

Neuester Wetterbericht von vor 4 Stunden und 34 Minuten, um 22:47 UTC
Gültige Prognose vom 30 um 00 UTC bis 01 um 06 UTC
Wind 2 kt aus unterschiedlichen Richtungen
Sichtweite: 5000 m
trockener Dunst
Zeitweise
vom 30 um 02 UTC bis 30 um 06 UTC
Sichtweite: 3000 m
Rauch
Übergehend zu
vom 30 um 06 UTC bis 30 um 08 UTC
Wind 12 kt aus West
Sichtweite: 4000 m
trockener Dunst

TAF: OJAM 292247Z 3000/0106 VRB02KT 5000 HZ NSC TEMPO 3002/3006 3000 FU BECMG 3006/3008 26012KT 4000 HZ NSC

Wetterbeobachtungen und Prognosen von mehr als 4000 Flughäfen (METAR und TAF Bericht).

Die verfügbaren Stationen werden durch gelbe und rote Markierungen auf der Karte dargestellt.

Führen Sie die Maus auf sie, um den Namen der Station zu sehen.

Darauf klicken, um die Beobachtung von Wetterbeobachtungen und Prognosen zu sehen.

Um die Karte zu ändern : klicken Sie auf den grünen Tasten mit einem schwarzen Kreuz Zum Vergrößern, auf den grünen Button mit einem Gedankenstrich zu verkleinern, oder auf die grünen Pfeile für benachbarte Karten.


METAR-TAF: